createdAt,value
2022-11-17T00:01:37.352Z,7.40
2022-11-17T00:04:04.033Z,7.50
2022-11-17T00:06:30.687Z,7.40
2022-11-17T00:08:57.361Z,7.50
2022-11-17T00:11:24.077Z,7.40
2022-11-17T00:13:50.760Z,7.50
2022-11-17T00:16:19.422Z,7.50
2022-11-17T00:18:47.620Z,7.60
2022-11-17T00:21:20.041Z,7.50
2022-11-17T00:23:47.011Z,7.50
2022-11-17T00:26:15.388Z,7.50
2022-11-17T00:28:42.076Z,7.40
2022-11-17T00:31:11.073Z,7.40
2022-11-17T00:33:37.757Z,7.40
2022-11-17T00:36:06.601Z,7.50
2022-11-17T00:38:33.290Z,7.50
2022-11-17T00:40:59.979Z,7.50
2022-11-17T00:43:26.654Z,7.50
2022-11-17T00:45:53.323Z,7.50
2022-11-17T00:48:20.004Z,7.50
2022-11-17T00:50:46.702Z,7.50
2022-11-17T00:53:14.732Z,7.50
2022-11-17T00:55:42.760Z,7.50
2022-11-17T00:58:09.446Z,7.50
2022-11-17T01:00:36.152Z,7.60
2022-11-17T01:03:02.873Z,7.70
2022-11-17T01:05:33.004Z,7.70
2022-11-17T01:07:59.984Z,7.60
2022-11-17T01:10:28.010Z,7.70
2022-11-17T01:12:54.694Z,7.70
2022-11-17T01:15:21.409Z,7.60
2022-11-17T01:17:48.125Z,7.70
2022-11-17T01:20:15.175Z,7.60
2022-11-17T01:22:41.866Z,7.50
2022-11-17T01:25:09.029Z,7.60
2022-11-17T01:27:37.057Z,7.60
2022-11-17T01:30:04.478Z,7.60
2022-11-17T01:32:31.181Z,7.60
2022-11-17T01:34:57.866Z,7.60
2022-11-17T01:37:24.592Z,7.60
2022-11-17T01:39:51.266Z,7.60
2022-11-17T01:42:20.616Z,7.60
2022-11-17T01:44:55.925Z,7.70
2022-11-17T01:47:27.415Z,7.70
2022-11-17T01:49:59.329Z,7.70
2022-11-17T01:52:28.188Z,7.70
2022-11-17T01:54:56.722Z,7.80
2022-11-17T01:57:27.380Z,7.80
2022-11-17T01:59:59.337Z,7.90
2022-11-17T02:02:26.335Z,7.90
2022-11-17T02:04:59.586Z,8.00
2022-11-17T02:07:29.676Z,8.00
2022-11-17T02:09:57.001Z,8.00
2022-11-17T02:12:26.425Z,7.90
2022-11-17T02:14:55.192Z,7.90
2022-11-17T02:17:24.162Z,7.90
2022-11-17T02:19:56.378Z,7.90
2022-11-17T02:22:58.288Z,7.90
2022-11-17T02:25:42.572Z,8.00
2022-11-17T02:28:16.969Z,7.90
2022-11-17T02:30:54.305Z,8.00
2022-11-17T02:33:30.653Z,8.00
2022-11-17T02:36:04.017Z,8.10
2022-11-17T02:38:37.356Z,8.10
2022-11-17T02:41:11.673Z,8.10
2022-11-17T02:43:44.382Z,8.10
2022-11-17T02:46:15.600Z,8.20
2022-11-17T02:48:46.082Z,8.20
2022-11-17T02:51:19.504Z,8.20
2022-11-17T02:53:46.678Z,8.40
2022-11-17T02:56:13.375Z,8.30
2022-11-17T02:58:41.440Z,8.40
2022-11-17T03:01:23.674Z,8.30
2022-11-17T03:04:07.752Z,8.40
2022-11-17T03:06:41.346Z,8.30
2022-11-17T03:09:15.250Z,8.40
2022-11-17T03:11:48.085Z,8.40
2022-11-17T03:14:25.334Z,8.40
2022-11-17T03:17:00.120Z,8.50
2022-11-17T03:19:31.940Z,8.60
2022-11-17T03:22:06.757Z,8.60
2022-11-17T03:24:36.752Z,8.60
2022-11-17T03:27:07.723Z,8.50
2022-11-17T03:29:40.862Z,8.40
2022-11-17T03:32:09.220Z,8.40
2022-11-17T03:34:38.323Z,8.30
2022-11-17T03:37:08.669Z,8.40
2022-11-17T03:39:38.510Z,8.30
2022-11-17T03:42:09.250Z,8.30
2022-11-17T03:44:42.112Z,8.30
2022-11-17T03:47:12.471Z,8.30
2022-11-17T03:49:44.772Z,8.30
2022-11-17T03:52:11.738Z,8.20
2022-11-17T03:54:39.692Z,8.20
2022-11-17T03:57:12.357Z,8.20
2022-11-17T03:59:50.323Z,8.10
2022-11-17T04:02:18.097Z,8.10
2022-11-17T04:04:44.829Z,8.00
2022-11-17T04:07:11.548Z,8.00
2022-11-17T04:09:38.233Z,8.00
2022-11-17T04:12:05.344Z,8.00
2022-11-17T04:14:32.024Z,8.00
2022-11-17T04:17:00.056Z,8.00
2022-11-17T04:19:26.729Z,8.10
2022-11-17T04:21:53.484Z,8.10
2022-11-17T04:24:20.183Z,8.00
2022-11-17T04:26:46.860Z,8.00
2022-11-17T04:29:13.813Z,7.90
2022-11-17T04:31:40.504Z,7.90
2022-11-17T04:34:08.519Z,7.90
2022-11-17T04:36:37.036Z,8.00
2022-11-17T04:39:03.985Z,8.10
2022-11-17T04:41:30.972Z,8.20
2022-11-17T04:43:57.941Z,8.10
2022-11-17T04:46:25.639Z,8.20
2022-11-17T04:48:52.969Z,8.30
2022-11-17T04:51:21.989Z,8.30
2022-11-17T04:53:48.745Z,8.30
2022-11-17T04:56:15.957Z,8.30
2022-11-17T04:58:42.946Z,8.40
2022-11-17T05:01:09.933Z,8.40
2022-11-17T05:03:36.878Z,8.40
2022-11-17T05:06:03.949Z,8.40
2022-11-17T05:08:31.979Z,8.30
2022-11-17T05:10:58.829Z,8.20
2022-11-17T05:13:25.934Z,8.10
2022-11-17T05:15:53.219Z,8.00
2022-11-17T05:18:19.932Z,8.10
2022-11-17T05:20:46.606Z,8.00
2022-11-17T05:23:13.265Z,7.90
2022-11-17T05:25:41.288Z,7.90
2022-11-17T05:28:07.959Z,7.90
2022-11-17T05:30:34.635Z,7.90
2022-11-17T05:33:01.303Z,7.90
2022-11-17T05:35:27.970Z,7.90
2022-11-17T05:37:54.637Z,7.90
2022-11-17T05:40:21.314Z,7.90
2022-11-17T05:42:53.000Z,7.90
2022-11-17T05:45:23.577Z,7.90
2022-11-17T05:47:50.233Z,7.90
2022-11-17T05:50:16.936Z,7.90
2022-11-17T05:52:43.607Z,7.90
2022-11-17T05:55:10.270Z,7.90
2022-11-17T05:57:37.078Z,7.90
2022-11-17T06:00:06.685Z,7.90
2022-11-17T06:02:37.907Z,8.00
2022-11-17T06:05:05.507Z,8.00
2022-11-17T06:07:32.693Z,8.00
2022-11-17T06:09:59.452Z,8.00
2022-11-17T06:12:26.117Z,8.00
2022-11-17T06:14:52.911Z,8.00
2022-11-17T06:17:24.929Z,8.00
2022-11-17T06:19:54.893Z,8.10
2022-11-17T06:22:21.698Z,8.10
2022-11-17T06:24:48.573Z,8.20
2022-11-17T06:27:16.757Z,8.20
2022-11-17T06:29:45.106Z,8.20
2022-11-17T06:32:12.930Z,8.20
2022-11-17T06:34:41.315Z,8.10
2022-11-17T06:37:07.982Z,8.10
2022-11-17T06:39:34.672Z,8.10
2022-11-17T06:42:01.337Z,8.20
2022-11-17T06:44:28.054Z,8.10
2022-11-17T06:46:54.739Z,8.20
2022-11-17T06:49:21.456Z,8.10
2022-11-17T06:51:49.475Z,8.10
2022-11-17T06:54:16.289Z,8.00
2022-11-17T06:56:43.007Z,8.00
2022-11-17T06:59:09.771Z,8.00
2022-11-17T07:01:37.649Z,8.00
2022-11-17T07:04:04.689Z,8.00
2022-11-17T07:06:31.428Z,8.00
2022-11-17T07:08:59.490Z,8.10
2022-11-17T07:11:26.201Z,8.10
2022-11-17T07:13:53.072Z,8.00
2022-11-17T07:16:23.529Z,8.00
2022-11-17T07:18:52.131Z,8.10
2022-11-17T07:21:18.991Z,8.10
2022-11-17T07:23:45.862Z,8.00
2022-11-17T07:26:14.035Z,8.00
2022-11-17T07:28:40.750Z,8.10
2022-11-17T07:31:08.856Z,8.10
2022-11-17T07:33:36.530Z,8.10
2022-11-17T07:36:04.431Z,8.10
2022-11-17T07:38:32.524Z,8.00
2022-11-17T07:40:59.393Z,8.10
2022-11-17T07:43:27.744Z,8.20
2022-11-17T07:45:54.923Z,8.20
2022-11-17T07:48:21.771Z,8.20
2022-11-17T07:50:48.516Z,8.20
2022-11-17T07:53:15.363Z,8.20
2022-11-17T07:55:42.078Z,8.20
2022-11-17T07:58:08.943Z,8.20
2022-11-17T08:00:37.113Z,8.10
2022-11-17T08:03:05.271Z,8.10
2022-11-17T08:05:37.060Z,8.10
2022-11-17T08:08:06.803Z,8.20
2022-11-17T08:10:33.857Z,8.10
2022-11-17T08:13:00.826Z,8.10
2022-11-17T08:15:28.054Z,8.10
2022-11-17T08:17:57.816Z,8.00
2022-11-17T08:20:25.619Z,8.00
2022-11-17T08:22:53.439Z,8.00
2022-11-17T08:25:21.846Z,7.90
2022-11-17T08:27:48.915Z,7.80
2022-11-17T08:30:15.798Z,7.80
2022-11-17T08:32:47.232Z,7.70
2022-11-17T08:35:15.572Z,7.70
2022-11-17T08:37:42.284Z,7.70
2022-11-17T08:40:10.220Z,7.70
2022-11-17T08:42:37.035Z,7.70
2022-11-17T08:45:04.299Z,7.70
2022-11-17T08:47:30.984Z,7.80
2022-11-17T08:49:57.707Z,7.90
2022-11-17T08:52:27.162Z,7.90
2022-11-17T08:54:54.294Z,8.00
2022-11-17T08:57:21.401Z,8.00
2022-11-17T08:59:48.341Z,8.00
2022-11-17T09:02:15.229Z,8.10
2022-11-17T09:04:42.027Z,8.10
2022-11-17T09:07:09.083Z,8.10
2022-11-17T09:09:37.233Z,8.10
2022-11-17T09:12:04.204Z,8.00
2022-11-17T09:14:30.894Z,8.00
2022-11-17T09:16:57.612Z,8.00
2022-11-17T09:19:24.344Z,8.00
2022-11-17T09:21:51.108Z,8.00
2022-11-17T09:24:17.896Z,8.10
2022-11-17T09:26:45.980Z,8.00
2022-11-17T09:29:12.732Z,8.00
2022-11-17T09:31:39.622Z,8.00
2022-11-17T09:34:06.573Z,8.00
2022-11-17T09:36:33.554Z,8.00
2022-11-17T09:39:00.310Z,8.00
2022-11-17T09:41:32.347Z,7.90
2022-11-17T09:44:10.500Z,7.90
2022-11-17T09:46:51.293Z,7.80
2022-11-17T09:49:29.814Z,7.80
2022-11-17T09:52:00.053Z,7.80
2022-11-17T09:54:43.066Z,7.80
2022-11-17T09:57:20.935Z,7.80
2022-11-17T09:59:59.750Z,7.80
2022-11-17T10:02:26.704Z,7.80
2022-11-17T10:04:53.924Z,7.80
2022-11-17T10:07:20.954Z,7.80
2022-11-17T10:09:52.064Z,7.80
2022-11-17T10:12:21.432Z,7.80
2022-11-17T10:14:50.366Z,7.80
2022-11-17T10:17:17.231Z,7.80
2022-11-17T10:19:44.337Z,7.90
2022-11-17T10:22:21.135Z,7.90
2022-11-17T10:24:49.620Z,8.00
2022-11-17T10:27:20.640Z,8.10
2022-11-17T10:29:58.758Z,8.10
2022-11-17T10:32:26.022Z,8.10
2022-11-17T10:34:52.866Z,8.20
2022-11-17T10:37:27.105Z,8.20
2022-11-17T10:40:14.171Z,8.20
2022-11-17T10:42:52.550Z,8.20
2022-11-17T10:45:20.832Z,8.20
2022-11-17T10:47:48.052Z,8.30
2022-11-17T10:50:20.609Z,8.30
2022-11-17T10:52:48.617Z,8.40
2022-11-17T10:55:22.857Z,8.40
2022-11-17T10:57:51.848Z,8.40
2022-11-17T11:00:30.462Z,8.40
2022-11-17T11:03:19.973Z,8.40
2022-11-17T11:05:56.166Z,8.40
2022-11-17T11:08:24.930Z,8.40
2022-11-17T11:10:54.159Z,8.40
2022-11-17T11:13:27.558Z,8.40
2022-11-17T11:15:55.827Z,8.50
2022-11-17T11:18:23.152Z,8.50
2022-11-17T11:20:58.080Z,8.60
2022-11-17T11:23:44.260Z,8.50
2022-11-17T11:26:22.630Z,8.60
2022-11-17T11:29:04.392Z,8.60
2022-11-17T11:31:45.678Z,8.60
2022-11-17T11:34:26.125Z,8.70
2022-11-17T11:36:56.885Z,8.70
2022-11-17T11:39:36.140Z,8.60
2022-11-17T11:42:33.879Z,8.60
2022-11-17T11:45:23.076Z,8.50
2022-11-17T11:48:18.004Z,8.50
2022-11-17T11:51:05.084Z,8.50
2022-11-17T11:53:42.040Z,8.50
2022-11-17T11:56:17.070Z,8.50
2022-11-17T11:58:51.047Z,8.50
2022-11-17T12:01:20.168Z,8.40
2022-11-17T12:03:56.955Z,8.40
2022-11-17T12:06:29.844Z,8.30
2022-11-17T12:09:06.878Z,8.40
2022-11-17T12:11:34.612Z,8.50
2022-11-17T12:14:04.708Z,8.50
2022-11-17T12:16:34.178Z,8.60
2022-11-17T12:19:02.810Z,8.50
2022-11-17T12:21:30.402Z,8.50
2022-11-17T12:24:13.964Z,8.40
2022-11-17T12:26:41.102Z,8.30
2022-11-17T12:29:25.192Z,8.30
2022-11-17T12:31:53.509Z,8.40
2022-11-17T12:34:27.692Z,8.40
2022-11-17T12:37:24.504Z,8.50
2022-11-17T12:40:03.782Z,8.50
2022-11-17T12:42:31.564Z,8.50
2022-11-17T12:45:00.159Z,8.50
2022-11-17T12:47:29.160Z,8.40
2022-11-17T12:50:30.385Z,8.50
2022-11-17T12:53:26.020Z,8.40
2022-11-17T12:56:23.324Z,8.40
2022-11-17T12:58:58.865Z,8.40
2022-11-17T13:01:37.466Z,8.30
2022-11-17T13:04:09.684Z,8.20
2022-11-17T13:06:38.236Z,8.20
2022-11-17T13:09:07.002Z,8.20
2022-11-17T13:11:34.653Z,8.20
2022-11-17T13:14:12.872Z,8.20
2022-11-17T13:16:45.747Z,8.30
2022-11-17T13:19:31.439Z,8.20
2022-11-17T13:22:01.509Z,8.30
2022-11-17T13:24:30.554Z,8.20
2022-11-17T13:26:58.272Z,8.30
2022-11-17T13:29:25.028Z,8.30
2022-11-17T13:32:11.077Z,8.20
2022-11-17T13:34:46.124Z,8.20
2022-11-17T13:37:17.594Z,8.20
2022-11-17T13:39:58.309Z,8.20
2022-11-17T13:42:27.472Z,8.20
2022-11-17T13:44:56.074Z,8.20
2022-11-17T13:47:28.302Z,8.20
2022-11-17T13:49:55.048Z,8.20
2022-11-17T13:52:40.405Z,8.20
2022-11-17T13:55:17.561Z,8.20
2022-11-17T13:57:54.776Z,8.30
2022-11-17T14:00:22.192Z,8.30
2022-11-17T14:02:52.653Z,8.40
2022-11-17T14:05:22.724Z,8.40
2022-11-17T14:07:51.411Z,8.50
2022-11-17T14:10:32.750Z,8.40
2022-11-17T14:13:27.516Z,8.40
2022-11-17T14:15:57.223Z,8.50
2022-11-17T14:18:28.977Z,8.60
2022-11-17T14:21:12.536Z,8.70
2022-11-17T14:23:41.246Z,8.60
2022-11-17T14:26:18.701Z,8.60
2022-11-17T14:28:45.781Z,8.60
2022-11-17T14:31:12.937Z,8.60
2022-11-17T14:33:39.664Z,8.70
2022-11-17T14:36:11.783Z,8.70
2022-11-17T14:38:39.905Z,8.60
2022-11-17T14:41:06.829Z,8.60
2022-11-17T14:43:33.871Z,8.60
2022-11-17T14:46:00.554Z,8.60
2022-11-17T14:48:27.315Z,8.60
2022-11-17T14:50:56.784Z,8.70
2022-11-17T14:53:23.632Z,8.70
2022-11-17T14:55:51.825Z,8.70
2022-11-17T14:58:18.507Z,8.70
2022-11-17T15:00:45.294Z,8.70
2022-11-17T15:03:12.051Z,8.80
2022-11-17T15:05:43.525Z,8.70
2022-11-17T15:08:10.271Z,8.70
2022-11-17T15:10:37.012Z,8.70
2022-11-17T15:13:05.012Z,8.60
2022-11-17T15:15:31.720Z,8.60
2022-11-17T15:17:58.402Z,8.60
2022-11-17T15:20:25.122Z,8.60
2022-11-17T15:22:51.850Z,8.60
2022-11-17T15:25:18.639Z,8.50
2022-11-17T15:27:45.360Z,8.60
2022-11-17T15:30:14.623Z,8.60
2022-11-17T15:32:41.316Z,8.60
2022-11-17T15:35:08.790Z,8.60
2022-11-17T15:37:35.489Z,8.70
2022-11-17T15:40:02.212Z,8.60
2022-11-17T15:42:28.904Z,8.60
2022-11-17T15:44:55.624Z,8.60
2022-11-17T15:47:23.658Z,8.60
2022-11-17T15:49:50.425Z,8.50
2022-11-17T15:52:19.570Z,8.60
2022-11-17T15:54:57.100Z,8.50
2022-11-17T15:57:23.822Z,8.50
2022-11-17T15:59:50.725Z,8.50
2022-11-17T16:02:18.203Z,8.50
2022-11-17T16:04:46.348Z,8.60
2022-11-17T16:07:13.122Z,8.40
2022-11-17T16:09:39.857Z,8.40
2022-11-17T16:12:06.751Z,8.60
2022-11-17T16:14:33.619Z,8.40
2022-11-17T16:17:00.400Z,8.40
2022-11-17T16:19:27.147Z,8.40
2022-11-17T16:21:55.324Z,8.40
2022-11-17T16:24:22.083Z,8.60
2022-11-17T16:26:48.741Z,8.50
2022-11-17T16:29:15.612Z,8.40
2022-11-17T16:31:42.567Z,8.50
2022-11-17T16:34:12.181Z,8.40
2022-11-17T16:36:40.786Z,8.40
2022-11-17T16:39:10.730Z,8.40
2022-11-17T16:41:39.157Z,8.30
2022-11-17T16:44:08.424Z,8.40
2022-11-17T16:46:35.624Z,8.30
2022-11-17T16:49:05.057Z,8.30
2022-11-17T16:51:32.113Z,8.30
2022-11-17T16:54:00.529Z,8.30
2022-11-17T16:56:29.218Z,8.30
2022-11-17T16:58:56.041Z,8.30
2022-11-17T17:01:24.353Z,8.40
2022-11-17T17:03:55.296Z,8.30
2022-11-17T17:06:22.010Z,8.30
2022-11-17T17:08:52.944Z,8.20
2022-11-17T17:11:19.714Z,8.20
2022-11-17T17:13:47.802Z,8.10
2022-11-17T17:16:17.204Z,7.90
2022-11-17T17:18:44.493Z,8.00
2022-11-17T17:21:13.852Z,8.00
2022-11-17T17:23:40.582Z,7.80
2022-11-17T17:26:08.713Z,7.90
2022-11-17T17:28:37.303Z,7.80
2022-11-17T17:31:05.941Z,7.80
2022-11-17T17:33:34.625Z,7.90
2022-11-17T17:36:01.892Z,7.90
2022-11-17T17:38:28.640Z,7.80
2022-11-17T17:40:55.424Z,7.80
2022-11-17T17:43:22.142Z,7.70
2022-11-17T17:45:48.883Z,7.60
2022-11-17T17:48:16.890Z,7.60
2022-11-17T17:50:43.557Z,7.40
2022-11-17T17:53:10.251Z,7.30
2022-11-17T17:55:36.917Z,7.40
2022-11-17T17:58:03.590Z,7.20
2022-11-17T18:00:30.244Z,7.30
2022-11-17T18:02:57.038Z,7.30
2022-11-17T18:05:25.168Z,7.30
2022-11-17T18:07:51.871Z,7.20
2022-11-17T18:10:18.843Z,7.20
2022-11-17T18:12:45.546Z,7.30
2022-11-17T18:15:12.235Z,7.30
2022-11-17T18:17:38.977Z,7.30
2022-11-17T18:20:06.904Z,7.20
2022-11-17T18:22:34.981Z,7.10
2022-11-17T18:25:06.013Z,7.20
2022-11-17T18:27:34.477Z,7.20
2022-11-17T18:30:01.310Z,7.00
2022-11-17T18:32:28.055Z,6.90
2022-11-17T18:34:54.782Z,7.00
2022-11-17T18:37:21.581Z,7.00
2022-11-17T18:39:49.646Z,7.00
2022-11-17T18:42:16.370Z,7.10
2022-11-17T18:44:43.197Z,7.00
2022-11-17T18:47:09.918Z,7.10
2022-11-17T18:49:36.657Z,7.10
2022-11-17T18:52:03.409Z,7.10
2022-11-17T18:54:30.120Z,7.10
2022-11-17T18:56:58.117Z,7.00
2022-11-17T18:59:24.905Z,7.00
2022-11-17T19:01:51.705Z,6.90
2022-11-17T19:04:18.477Z,6.90
2022-11-17T19:06:45.432Z,6.80
2022-11-17T19:09:12.380Z,6.90
2022-11-17T19:11:39.363Z,6.90
2022-11-17T19:14:07.694Z,6.90
2022-11-17T19:16:37.236Z,6.90
2022-11-17T19:19:06.352Z,6.70
2022-11-17T19:21:33.249Z,6.80
2022-11-17T19:24:01.646Z,6.80
2022-11-17T19:26:29.769Z,6.90
2022-11-17T19:28:57.285Z,6.80
2022-11-17T19:31:26.191Z,6.80
2022-11-17T19:33:53.832Z,6.80
2022-11-17T19:36:21.912Z,6.80
2022-11-17T19:38:49.619Z,6.70
2022-11-17T19:41:18.388Z,6.80
2022-11-17T19:43:46.859Z,6.70
2022-11-17T19:46:15.504Z,6.70
2022-11-17T19:48:44.947Z,6.70
2022-11-17T19:51:14.255Z,6.70
2022-11-17T19:53:41.297Z,6.70
2022-11-17T19:56:08.734Z,6.70
2022-11-17T19:58:35.727Z,6.60
2022-11-17T20:01:09.071Z,6.70
2022-11-17T20:03:36.188Z,6.60
2022-11-17T20:06:04.826Z,6.50
2022-11-17T20:08:31.801Z,6.70
2022-11-17T20:11:06.565Z,6.70
2022-11-17T20:13:34.032Z,6.60
2022-11-17T20:16:03.480Z,6.60
2022-11-17T20:18:33.231Z,6.60
2022-11-17T20:21:03.108Z,6.70
2022-11-17T20:23:32.700Z,6.60
2022-11-17T20:26:02.879Z,6.50
2022-11-17T20:28:31.955Z,6.50
2022-11-17T20:30:58.546Z,6.40
2022-11-17T20:33:25.312Z,6.40
2022-11-17T20:35:52.056Z,6.40
2022-11-17T20:38:18.788Z,6.50
2022-11-17T20:40:46.859Z,6.40
2022-11-17T20:43:13.596Z,6.40
2022-11-17T20:45:40.357Z,6.40
2022-11-17T20:48:07.339Z,6.40
2022-11-17T20:50:34.095Z,6.30
2022-11-17T20:53:00.783Z,6.30
2022-11-17T20:55:27.469Z,6.30
2022-11-17T20:57:55.484Z,6.20
2022-11-17T21:00:22.195Z,6.20
2022-11-17T21:02:48.918Z,6.20
2022-11-17T21:05:15.700Z,6.20
2022-11-17T21:07:42.520Z,6.30
2022-11-17T21:10:09.497Z,6.30
2022-11-17T21:12:36.214Z,6.20
2022-11-17T21:15:05.314Z,6.20
2022-11-17T21:17:33.211Z,6.20
2022-11-17T21:19:59.928Z,6.20
2022-11-17T21:22:26.667Z,6.20
2022-11-17T21:24:53.338Z,6.10
2022-11-17T21:27:20.011Z,6.20
2022-11-17T21:29:46.728Z,6.20
2022-11-17T21:32:14.856Z,6.20
2022-11-17T21:34:45.677Z,6.20
2022-11-17T21:37:15.280Z,6.10
2022-11-17T21:39:42.014Z,6.20
2022-11-17T21:42:08.685Z,6.20
2022-11-17T21:44:35.415Z,6.20
2022-11-17T21:47:02.144Z,6.10
2022-11-17T21:49:30.196Z,6.10
2022-11-17T21:51:56.912Z,6.10
2022-11-17T21:54:23.600Z,6.10
2022-11-17T21:56:51.374Z,6.10
2022-11-17T21:59:18.344Z,6.10
2022-11-17T22:01:45.347Z,6.10
2022-11-17T22:04:12.244Z,5.90
2022-11-17T22:06:40.256Z,5.90
2022-11-17T22:09:07.556Z,5.90
2022-11-17T22:11:34.230Z,5.90
2022-11-17T22:14:02.829Z,5.90
2022-11-17T22:16:29.664Z,5.90
2022-11-17T22:18:56.395Z,5.90
2022-11-17T22:21:23.189Z,5.90
2022-11-17T22:23:51.316Z,6.00
2022-11-17T22:26:18.027Z,6.00
2022-11-17T22:28:44.737Z,6.00
2022-11-17T22:31:11.552Z,5.90
2022-11-17T22:33:38.285Z,5.90
2022-11-17T22:36:05.449Z,6.00
2022-11-17T22:38:32.333Z,5.90
2022-11-17T22:41:01.476Z,5.90
2022-11-17T22:43:28.629Z,5.80
2022-11-17T22:45:55.588Z,5.80
2022-11-17T22:48:22.576Z,5.80
2022-11-17T22:50:49.396Z,5.80
2022-11-17T22:53:16.131Z,5.80
2022-11-17T22:55:42.828Z,5.80
2022-11-17T22:58:10.885Z,5.70
2022-11-17T23:00:37.592Z,5.70
2022-11-17T23:03:04.340Z,5.70
2022-11-17T23:05:31.717Z,5.80
2022-11-17T23:07:58.394Z,5.80
2022-11-17T23:10:25.192Z,5.80
2022-11-17T23:12:53.191Z,5.90
2022-11-17T23:15:21.374Z,5.90
2022-11-17T23:17:48.206Z,5.90
2022-11-17T23:20:15.356Z,5.80
2022-11-17T23:22:42.080Z,5.70
2022-11-17T23:25:09.172Z,5.60
2022-11-17T23:27:35.897Z,5.60
2022-11-17T23:30:02.686Z,5.60
2022-11-17T23:32:30.739Z,5.60
2022-11-17T23:34:57.426Z,5.50
2022-11-17T23:37:24.111Z,5.50
2022-11-17T23:39:50.840Z,5.50
2022-11-17T23:42:17.489Z,5.50
2022-11-17T23:44:44.216Z,5.40
2022-11-17T23:47:10.924Z,5.50
2022-11-17T23:49:38.971Z,5.40
2022-11-17T23:52:05.677Z,5.40
2022-11-17T23:54:32.349Z,5.40
2022-11-17T23:56:59.044Z,5.30
2022-11-17T23:59:25.783Z,5.30
